sensor_id;sensor_type;location;lat;lon;timestamp;temperature;humidity
67354;SHT30;54238;52.278;21.056;2022-11-25T00:02:26;3.03;72.89
67354;SHT30;54238;52.278;21.056;2022-11-25T00:04:54;2.93;72.71
67354;SHT30;54238;52.278;21.056;2022-11-25T00:07:27;2.79;72.80
67354;SHT30;54238;52.278;21.056;2022-11-25T00:10:01;2.69;73.08
67354;SHT30;54238;52.278;21.056;2022-11-25T00:12:33;2.64;73.28
67354;SHT30;54238;52.278;21.056;2022-11-25T00:17:59;2.47;73.56
67354;SHT30;54238;52.278;21.056;2022-11-25T00:20:28;2.50;73.61
67354;SHT30;54238;52.278;21.056;2022-11-25T00:23:02;2.58;73.44
67354;SHT30;54238;52.278;21.056;2022-11-25T00:25:31;2.71;73.45
67354;SHT30;54238;52.278;21.056;2022-11-25T00:27:58;2.86;73.40
67354;SHT30;54238;52.278;21.056;2022-11-25T00:30:25;2.96;73.26
67354;SHT30;54238;52.278;21.056;2022-11-25T00:32:53;3.02;73.18
67354;SHT30;54238;52.278;21.056;2022-11-25T00:35:22;2.96;72.93
67354;SHT30;54238;52.278;21.056;2022-11-25T00:37:50;2.86;73.08
67354;SHT30;54238;52.278;21.056;2022-11-25T00:40:17;2.77;73.30
67354;SHT30;54238;52.278;21.056;2022-11-25T00:42:44;2.71;73.50
67354;SHT30;54238;52.278;21.056;2022-11-25T00:45:32;2.66;73.54
67354;SHT30;54238;52.278;21.056;2022-11-25T00:48:03;2.67;73.61
67354;SHT30;54238;52.278;21.056;2022-11-25T00:50:31;2.77;73.54
67354;SHT30;54238;52.278;21.056;2022-11-25T00:53:02;2.87;73.25
67354;SHT30;54238;52.278;21.056;2022-11-25T00:55:29;2.96;73.20
67354;SHT30;54238;52.278;21.056;2022-11-25T00:58:21;3.06;73.08
67354;SHT30;54238;52.278;21.056;2022-11-25T01:00:50;3.06;72.80
67354;SHT30;54238;52.278;21.056;2022-11-25T01:03:19;2.99;72.85
67354;SHT30;54238;52.278;21.056;2022-11-25T01:05:53;2.92;72.95
67354;SHT30;54238;52.278;21.056;2022-11-25T01:08:23;2.85;72.96
67354;SHT30;54238;52.278;21.056;2022-11-25T01:10:59;2.74;73.20
67354;SHT30;54238;52.278;21.056;2022-11-25T01:13:32;2.71;73.32
67354;SHT30;54238;52.278;21.056;2022-11-25T01:16:00;2.71;73.25
67354;SHT30;54238;52.278;21.056;2022-11-25T01:18:32;2.76;73.21
67354;SHT30;54238;52.278;21.056;2022-11-25T01:21:35;2.83;73.07
67354;SHT30;54238;52.278;21.056;2022-11-25T01:23:58;2.94;73.01
67354;SHT30;54238;52.278;21.056;2022-11-25T01:26:29;3.01;72.84
67354;SHT30;54238;52.278;21.056;2022-11-25T01:28:59;3.04;72.87
67354;SHT30;54238;52.278;21.056;2022-11-25T01:31:33;2.98;72.84
67354;SHT30;54238;52.278;21.056;2022-11-25T01:34:07;2.93;73.13
67354;SHT30;54238;52.278;21.056;2022-11-25T01:36:49;2.89;73.28
67354;SHT30;54238;52.278;21.056;2022-11-25T01:41:51;2.76;73.29
67354;SHT30;54238;52.278;21.056;2022-11-25T01:44:19;2.71;73.37
67354;SHT30;54238;52.278;21.056;2022-11-25T01:46:55;2.67;73.39
67354;SHT30;54238;52.278;21.056;2022-11-25T01:49:38;2.73;73.50
67354;SHT30;54238;52.278;21.056;2022-11-25T01:54:55;2.95;73.23
67354;SHT30;54238;52.278;21.056;2022-11-25T01:57:34;3.00;73.24
67354;SHT30;54238;52.278;21.056;2022-11-25T02:00:13;2.99;73.21
67354;SHT30;54238;52.278;21.056;2022-11-25T02:02:41;2.93;73.24
67354;SHT30;54238;52.278;21.056;2022-11-25T02:05:10;2.84;73.25
67354;SHT30;54238;52.278;21.056;2022-11-25T02:07:45;2.74;73.42
67354;SHT30;54238;52.278;21.056;2022-11-25T02:10:25;2.64;73.65
67354;SHT30;54238;52.278;21.056;2022-11-25T02:12:56;2.57;73.87
67354;SHT30;54238;52.278;21.056;2022-11-25T02:15:29;2.56;73.93
67354;SHT30;54238;52.278;21.056;2022-11-25T02:18:04;2.63;73.92
67354;SHT30;54238;52.278;21.056;2022-11-25T02:20:33;2.75;73.80
67354;SHT30;54238;52.278;21.056;2022-11-25T02:25:36;2.94;73.28
67354;SHT30;54238;52.278;21.056;2022-11-25T02:28:08;2.90;73.34
67354;SHT30;54238;52.278;21.056;2022-11-25T02:30:46;2.88;73.57
67354;SHT30;54238;52.278;21.056;2022-11-25T02:33:16;2.86;73.58
67354;SHT30;54238;52.278;21.056;2022-11-25T02:35:46;2.78;73.61
67354;SHT30;54238;52.278;21.056;2022-11-25T02:38:21;2.71;73.80
67354;SHT30;54238;52.278;21.056;2022-11-25T02:43:41;2.61;74.12
67354;SHT30;54238;52.278;21.056;2022-11-25T02:46:16;2.68;74.07
67354;SHT30;54238;52.278;21.056;2022-11-25T02:48:49;2.85;73.99
67354;SHT30;54238;52.278;21.056;2022-11-25T02:51:24;3.03;73.67
67354;SHT30;54238;52.278;21.056;2022-11-25T02:53:53;3.10;73.37
67354;SHT30;54238;52.278;21.056;2022-11-25T02:56:26;3.08;73.20
67354;SHT30;54238;52.278;21.056;2022-11-25T02:58:58;3.01;73.27
67354;SHT30;54238;52.278;21.056;2022-11-25T03:01:30;2.95;73.49
67354;SHT30;54238;52.278;21.056;2022-11-25T03:04:01;2.92;73.69
67354;SHT30;54238;52.278;21.056;2022-11-25T03:06:30;2.90;73.62
67354;SHT30;54238;52.278;21.056;2022-11-25T03:08:57;2.86;73.60
67354;SHT30;54238;52.278;21.056;2022-11-25T03:11:24;2.83;73.60
67354;SHT30;54238;52.278;21.056;2022-11-25T03:14:14;2.90;73.64
67354;SHT30;54238;52.278;21.056;2022-11-25T03:16:43;2.99;73.42
67354;SHT30;54238;52.278;21.056;2022-11-25T03:19:10;3.06;73.22
67354;SHT30;54238;52.278;21.056;2022-11-25T03:21:44;3.09;73.37
67354;SHT30;54238;52.278;21.056;2022-11-25T03:24:11;3.10;73.30
67354;SHT30;54238;52.278;21.056;2022-11-25T03:26:40;3.02;73.35
67354;SHT30;54238;52.278;21.056;2022-11-25T03:29:14;2.96;73.49
67354;SHT30;54238;52.278;21.056;2022-11-25T03:31:41;2.89;73.57
67354;SHT30;54238;52.278;21.056;2022-11-25T03:34:08;2.81;73.79
67354;SHT30;54238;52.278;21.056;2022-11-25T03:36:38;2.76;74.07
67354;SHT30;54238;52.278;21.056;2022-11-25T03:39:07;2.74;74.29
67354;SHT30;54238;52.278;21.056;2022-11-25T03:41:34;2.75;74.18
67354;SHT30;54238;52.278;21.056;2022-11-25T03:44:01;2.86;73.96
67354;SHT30;54238;52.278;21.056;2022-11-25T03:49:23;3.19;73.64
67354;SHT30;54238;52.278;21.056;2022-11-25T03:51:54;3.28;73.49
67354;SHT30;54238;52.278;21.056;2022-11-25T03:54:24;3.27;73.29
67354;SHT30;54238;52.278;21.056;2022-11-25T03:56:55;3.18;73.33
67354;SHT30;54238;52.278;21.056;2022-11-25T03:59:27;3.08;73.45
67354;SHT30;54238;52.278;21.056;2022-11-25T04:01:56;3.02;73.69
67354;SHT30;54238;52.278;21.056;2022-11-25T04:04:26;2.99;73.70
67354;SHT30;54238;52.278;21.056;2022-11-25T04:06:54;2.99;73.62
67354;SHT30;54238;52.278;21.056;2022-11-25T04:09:32;3.06;73.56
67354;SHT30;54238;52.278;21.056;2022-11-25T04:11:59;3.15;73.48
67354;SHT30;54238;52.278;21.056;2022-11-25T04:15:06;3.33;73.24
67354;SHT30;54238;52.278;21.056;2022-11-25T04:17:38;3.40;72.99
67354;SHT30;54238;52.278;21.056;2022-11-25T04:20:11;3.35;72.91
67354;SHT30;54238;52.278;21.056;2022-11-25T04:22:40;3.29;73.05
67354;SHT30;54238;52.278;21.056;2022-11-25T04:25:10;3.21;73.23
67354;SHT30;54238;52.278;21.056;2022-11-25T04:30:14;3.09;73.50
67354;SHT30;54238;52.278;21.056;2022-11-25T04:32:46;3.07;73.55
67354;SHT30;54238;52.278;21.056;2022-11-25T04:35:16;3.08;73.58
67354;SHT30;54238;52.278;21.056;2022-11-25T04:37:46;3.12;73.55
67354;SHT30;54238;52.278;21.056;2022-11-25T04:40:15;3.21;73.50
67354;SHT30;54238;52.278;21.056;2022-11-25T04:42:47;3.31;73.39
67354;SHT30;54238;52.278;21.056;2022-11-25T04:45:19;3.42;73.17
67354;SHT30;54238;52.278;21.056;2022-11-25T04:47:49;3.44;73.05
67354;SHT30;54238;52.278;21.056;2022-11-25T04:50:20;3.40;72.94
67354;SHT30;54238;52.278;21.056;2022-11-25T04:52:49;3.32;72.78
67354;SHT30;54238;52.278;21.056;2022-11-25T04:55:19;3.23;72.92
67354;SHT30;54238;52.278;21.056;2022-11-25T04:57:48;3.16;73.01
67354;SHT30;54238;52.278;21.056;2022-11-25T05:00:18;3.08;73.10
67354;SHT30;54238;52.278;21.056;2022-11-25T05:02:55;3.11;73.18
67354;SHT30;54238;52.278;21.056;2022-11-25T05:05:27;3.17;72.90
67354;SHT30;54238;52.278;21.056;2022-11-25T05:07:55;3.20;72.80
67354;SHT30;54238;52.278;21.056;2022-11-25T05:10:27;3.24;72.82
67354;SHT30;54238;52.278;21.056;2022-11-25T05:12:54;3.26;72.94
67354;SHT30;54238;52.278;21.056;2022-11-25T05:15:21;3.26;73.09
67354;SHT30;54238;52.278;21.056;2022-11-25T05:17:50;3.25;73.13
67354;SHT30;54238;52.278;21.056;2022-11-25T05:20:18;3.19;72.92
67354;SHT30;54238;52.278;21.056;2022-11-25T05:22:50;3.09;72.92
67354;SHT30;54238;52.278;21.056;2022-11-25T05:25:21;3.05;73.09
67354;SHT30;54238;52.278;21.056;2022-11-25T05:27:52;3.09;73.07
67354;SHT30;54238;52.278;21.056;2022-11-25T05:30:21;3.17;72.92
67354;SHT30;54238;52.278;21.056;2022-11-25T05:32:50;3.25;72.95
67354;SHT30;54238;52.278;21.056;2022-11-25T05:35:20;3.28;73.02
67354;SHT30;54238;52.278;21.056;2022-11-25T05:37:49;3.30;73.04
67354;SHT30;54238;52.278;21.056;2022-11-25T05:40:16;3.26;72.79
67354;SHT30;54238;52.278;21.056;2022-11-25T05:42:46;3.16;72.82
67354;SHT30;54238;52.278;21.056;2022-11-25T05:45:15;3.06;73.09
67354;SHT30;54238;52.278;21.056;2022-11-25T05:47:47;2.95;73.19
67354;SHT30;54238;52.278;21.056;2022-11-25T05:50:16;2.89;73.35
67354;SHT30;54238;52.278;21.056;2022-11-25T05:52:43;2.92;73.44
67354;SHT30;54238;52.278;21.056;2022-11-25T05:55:10;2.99;73.41
67354;SHT30;54238;52.278;21.056;2022-11-25T05:57:40;3.08;73.30
67354;SHT30;54238;52.278;21.056;2022-11-25T06:00:09;3.11;73.20
67354;SHT30;54238;52.278;21.056;2022-11-25T06:02:40;3.08;73.45
67354;SHT30;54238;52.278;21.056;2022-11-25T06:05:12;3.05;73.71
67354;SHT30;54238;52.278;21.056;2022-11-25T06:07:39;3.02;73.87
67354;SHT30;54238;52.278;21.056;2022-11-25T06:10:11;2.94;73.93
67354;SHT30;54238;52.278;21.056;2022-11-25T06:12:42;2.88;74.18
67354;SHT30;54238;52.278;21.056;2022-11-25T06:15:09;2.88;74.16
67354;SHT30;54238;52.278;21.056;2022-11-25T06:17:42;3.01;74.16
67354;SHT30;54238;52.278;21.056;2022-11-25T06:20:12;3.16;73.90
67354;SHT30;54238;52.278;21.056;2022-11-25T06:22:41;3.27;73.30
67354;SHT30;54238;52.278;21.056;2022-11-25T06:25:13;3.28;72.98
67354;SHT30;54238;52.278;21.056;2022-11-25T06:27:43;3.19;73.06
67354;SHT30;54238;52.278;21.056;2022-11-25T06:30:14;3.09;73.48
67354;SHT30;54238;52.278;21.056;2022-11-25T06:32:44;3.01;73.67
67354;SHT30;54238;52.278;21.056;2022-11-25T06:35:12;2.90;73.93
67354;SHT30;54238;52.278;21.056;2022-11-25T06:37:42;2.80;74.21
67354;SHT30;54238;52.278;21.056;2022-11-25T06:40:09;2.79;74.37
67354;SHT30;54238;52.278;21.056;2022-11-25T06:42:37;2.87;74.47
67354;SHT30;54238;52.278;21.056;2022-11-25T06:45:05;2.99;74.28
67354;SHT30;54238;52.278;21.056;2022-11-25T06:47:39;3.12;73.93
67354;SHT30;54238;52.278;21.056;2022-11-25T06:50:13;3.18;73.77
67354;SHT30;54238;52.278;21.056;2022-11-25T06:52:42;3.19;73.77
67354;SHT30;54238;52.278;21.056;2022-11-25T06:55:14;3.17;73.74
67354;SHT30;54238;52.278;21.056;2022-11-25T06:57:44;3.12;73.91
67354;SHT30;54238;52.278;21.056;2022-11-25T07:00:14;3.07;73.98
67354;SHT30;54238;52.278;21.056;2022-11-25T07:02:42;3.02;74.12
67354;SHT30;54238;52.278;21.056;2022-11-25T07:05:11;3.01;74.13
67354;SHT30;54238;52.278;21.056;2022-11-25T07:07:40;3.10;74.02
67354;SHT30;54238;52.278;21.056;2022-11-25T07:13:12;3.38;73.47
67354;SHT30;54238;52.278;21.056;2022-11-25T07:15:41;3.42;73.27
67354;SHT30;54238;52.278;21.056;2022-11-25T07:18:10;3.35;73.08
67354;SHT30;54238;52.278;21.056;2022-11-25T07:20:38;3.27;73.35
67354;SHT30;54238;52.278;21.056;2022-11-25T07:23:07;3.22;73.51
67354;SHT30;54238;52.278;21.056;2022-11-25T07:25:37;3.19;73.62
67354;SHT30;54238;52.278;21.056;2022-11-25T07:28:05;3.17;73.80
67354;SHT30;54238;52.278;21.056;2022-11-25T07:30:39;3.13;73.73
67354;SHT30;54238;52.278;21.056;2022-11-25T07:33:09;3.04;73.56
67354;SHT30;54238;52.278;21.056;2022-11-25T07:35:36;3.10;73.53
67354;SHT30;54238;52.278;21.056;2022-11-25T07:38:07;3.24;73.49
67354;SHT30;54238;52.278;21.056;2022-11-25T07:40:35;3.36;73.14
67354;SHT30;54238;52.278;21.056;2022-11-25T07:43:04;3.41;72.96
67354;SHT30;54238;52.278;21.056;2022-11-25T07:45:36;3.41;73.04
67354;SHT30;54238;52.278;21.056;2022-11-25T07:48:03;3.40;73.14
67354;SHT30;54238;52.278;21.056;2022-11-25T07:50:30;3.39;73.02
67354;SHT30;54238;52.278;21.056;2022-11-25T07:53:04;3.33;73.05
67354;SHT30;54238;52.278;21.056;2022-11-25T07:55:30;3.24;73.08
67354;SHT30;54238;52.278;21.056;2022-11-25T07:58:00;3.19;73.29
67354;SHT30;54238;52.278;21.056;2022-11-25T08:00:29;3.21;73.38
67354;SHT30;54238;52.278;21.056;2022-11-25T08:02:58;3.30;73.23
67354;SHT30;54238;52.278;21.056;2022-11-25T08:05:29;3.44;73.09
67354;SHT30;54238;52.278;21.056;2022-11-25T08:08:02;3.62;72.89
67354;SHT30;54238;52.278;21.056;2022-11-25T08:10:32;3.72;72.53
67354;SHT30;54238;52.278;21.056;2022-11-25T08:13:07;3.72;72.36
67354;SHT30;54238;52.278;21.056;2022-11-25T08:15:34;3.67;72.31
67354;SHT30;54238;52.278;21.056;2022-11-25T08:18:03;3.60;72.33
67354;SHT30;54238;52.278;21.056;2022-11-25T08:20:30;3.55;72.55
67354;SHT30;54238;52.278;21.056;2022-11-25T08:23:00;3.47;72.70
67354;SHT30;54238;52.278;21.056;2022-11-25T08:25:31;3.41;72.88
67354;SHT30;54238;52.278;21.056;2022-11-25T08:27:58;3.42;73.09
67354;SHT30;54238;52.278;21.056;2022-11-25T08:30:30;3.53;72.91
67354;SHT30;54238;52.278;21.056;2022-11-25T08:32:57;3.66;72.56
67354;SHT30;54238;52.278;21.056;2022-11-25T08:35:25;3.81;72.42
67354;SHT30;54238;52.278;21.056;2022-11-25T08:38:00;3.93;72.06
67354;SHT30;54238;52.278;21.056;2022-11-25T08:40:29;3.98;71.96
67354;SHT30;54238;52.278;21.056;2022-11-25T08:42:57;3.99;71.95
67354;SHT30;54238;52.278;21.056;2022-11-25T08:45:24;3.96;71.80
67354;SHT30;54238;52.278;21.056;2022-11-25T08:47:53;3.92;71.96
67354;SHT30;54238;52.278;21.056;2022-11-25T08:53:19;3.83;72.01
67354;SHT30;54238;52.278;21.056;2022-11-25T08:55:47;3.79;72.17
67354;SHT30;54238;52.278;21.056;2022-11-25T08:58:15;3.82;71.90
67354;SHT30;54238;52.278;21.056;2022-11-25T09:00:46;3.91;71.73
67354;SHT30;54238;52.278;21.056;2022-11-25T09:03:14;4.06;71.61
67354;SHT30;54238;52.278;21.056;2022-11-25T09:05:41;4.20;71.39
67354;SHT30;54238;52.278;21.056;2022-11-25T09:08:12;4.26;71.15
67354;SHT30;54238;52.278;21.056;2022-11-25T09:10:39;4.18;71.04
67354;SHT30;54238;52.278;21.056;2022-11-25T09:13:09;4.11;71.28
67354;SHT30;54238;52.278;21.056;2022-11-25T09:15:39;4.08;71.41
67354;SHT30;54238;52.278;21.056;2022-11-25T09:18:09;4.00;71.48
67354;SHT30;54238;52.278;21.056;2022-11-25T09:20:37;3.91;71.77
67354;SHT30;54238;52.278;21.056;2022-11-25T09:23:08;3.92;71.90
67354;SHT30;54238;52.278;21.056;2022-11-25T09:25:40;3.96;71.90
67354;SHT30;54238;52.278;21.056;2022-11-25T09:28:09;3.99;71.84
67354;SHT30;54238;52.278;21.056;2022-11-25T09:30:41;4.07;71.71
67354;SHT30;54238;52.278;21.056;2022-11-25T09:33:08;4.18;71.51
67354;SHT30;54238;52.278;21.056;2022-11-25T09:35:35;4.31;71.20
67354;SHT30;54238;52.278;21.056;2022-11-25T09:38:10;4.44;70.94
67354;SHT30;54238;52.278;21.056;2022-11-25T09:40:53;4.53;70.85
67354;SHT30;54238;52.278;21.056;2022-11-25T09:46:52;4.38;70.91
67354;SHT30;54238;52.278;21.056;2022-11-25T09:55:53;4.07;71.47
67354;SHT30;54238;52.278;21.056;2022-11-25T10:01:06;3.95;71.56
67354;SHT30;54238;52.278;21.056;2022-11-25T10:04:33;3.89;71.63
67354;SHT30;54238;52.278;21.056;2022-11-25T10:06:45;3.87;71.63
67354;SHT30;54238;52.278;21.056;2022-11-25T10:09:21;3.90;71.75
67354;SHT30;54238;52.278;21.056;2022-11-25T10:14:59;4.16;71.45
67354;SHT30;54238;52.278;21.056;2022-11-25T10:20:25;4.35;71.08
67354;SHT30;54238;52.278;21.056;2022-11-25T10:23:01;4.33;71.08
67354;SHT30;54238;52.278;21.056;2022-11-25T10:26:02;4.30;71.01
67354;SHT30;54238;52.278;21.056;2022-11-25T10:28:48;4.22;71.09
67354;SHT30;54238;52.278;21.056;2022-11-25T10:31:40;4.16;71.31
67354;SHT30;54238;52.278;21.056;2022-11-25T10:34:29;4.12;71.43
67354;SHT30;54238;52.278;21.056;2022-11-25T10:37:10;4.08;71.76
67354;SHT30;54238;52.278;21.056;2022-11-25T10:39:45;4.08;71.78
67354;SHT30;54238;52.278;21.056;2022-11-25T10:42:14;4.16;71.64
67354;SHT30;54238;52.278;21.056;2022-11-25T10:44:48;4.27;71.41
67354;SHT30;54238;52.278;21.056;2022-11-25T10:47:32;4.34;71.11
67354;SHT30;54238;52.278;21.056;2022-11-25T10:50:41;4.38;71.18
67354;SHT30;54238;52.278;21.056;2022-11-25T10:53:30;4.49;71.39
67354;SHT30;54238;52.278;21.056;2022-11-25T10:56:00;4.54;71.11
67354;SHT30;54238;52.278;21.056;2022-11-25T10:58:40;4.53;70.83
67354;SHT30;54238;52.278;21.056;2022-11-25T11:01:15;4.47;70.82
67354;SHT30;54238;52.278;21.056;2022-11-25T11:03:52;4.42;70.79
67354;SHT30;54238;52.278;21.056;2022-11-25T11:06:39;4.34;70.84
67354;SHT30;54238;52.278;21.056;2022-11-25T11:12:25;4.22;71.14
67354;SHT30;54238;52.278;21.056;2022-11-25T11:17:46;4.35;70.90
67354;SHT30;54238;52.278;21.056;2022-11-25T11:22:55;4.54;70.47
67354;SHT30;54238;52.278;21.056;2022-11-25T11:25:36;4.62;70.31
67354;SHT30;54238;52.278;21.056;2022-11-25T11:31:03;4.60;70.30
67354;SHT30;54238;52.278;21.056;2022-11-25T11:39:50;4.31;70.57
67354;SHT30;54238;52.278;21.056;2022-11-25T11:46:48;4.12;71.11
67354;SHT30;54238;52.278;21.056;2022-11-25T11:53:05;4.25;71.10
67354;SHT30;54238;52.278;21.056;2022-11-25T12:07:12;4.44;71.00
67354;SHT30;54238;52.278;21.056;2022-11-25T12:18:47;4.11;71.70
67354;SHT30;54238;52.278;21.056;2022-11-25T12:21:55;4.15;71.75
67354;SHT30;54238;52.278;21.056;2022-11-25T12:30:16;4.48;71.38
67354;SHT30;54238;52.278;21.056;2022-11-25T12:44:13;4.29;71.30
67354;SHT30;54238;52.278;21.056;2022-11-25T12:46:55;4.18;71.65
67354;SHT30;54238;52.278;21.056;2022-11-25T12:55:28;4.03;72.22
67354;SHT30;54238;52.278;21.056;2022-11-25T13:01:06;4.24;72.07
67354;SHT30;54238;52.278;21.056;2022-11-25T13:17:59;4.28;72.39
67354;SHT30;54238;52.278;21.056;2022-11-25T13:20:37;4.21;72.46
67354;SHT30;54238;52.278;21.056;2022-11-25T13:28:57;4.37;72.52
67354;SHT30;54238;52.278;21.056;2022-11-25T13:37:49;4.78;71.90
67354;SHT30;54238;52.278;21.056;2022-11-25T13:42:55;4.70;71.78
67354;SHT30;54238;52.278;21.056;2022-11-25T13:45:32;4.59;71.87
67354;SHT30;54238;52.278;21.056;2022-11-25T13:53:50;4.36;72.48
67354;SHT30;54238;52.278;21.056;2022-11-25T13:56:25;4.36;72.61
67354;SHT30;54238;52.278;21.056;2022-11-25T14:01:36;4.43;72.63
67354;SHT30;54238;52.278;21.056;2022-11-25T14:04:08;4.53;72.68
67354;SHT30;54238;52.278;21.056;2022-11-25T14:09:59;4.71;72.31
67354;SHT30;54238;52.278;21.056;2022-11-25T14:24:46;4.48;72.69
67354;SHT30;54238;52.278;21.056;2022-11-25T14:27:24;4.47;72.70
67354;SHT30;54238;52.278;21.056;2022-11-25T14:32:41;4.55;72.90
67354;SHT30;54238;52.278;21.056;2022-11-25T14:38:12;4.82;72.56
67354;SHT30;54238;52.278;21.056;2022-11-25T14:40:58;4.85;72.41
67354;SHT30;54238;52.278;21.056;2022-11-25T14:43:38;4.82;72.43
67354;SHT30;54238;52.278;21.056;2022-11-25T14:46:12;4.74;72.42
67354;SHT30;54238;52.278;21.056;2022-11-25T14:48:56;4.65;72.57
67354;SHT30;54238;52.278;21.056;2022-11-25T14:51:33;4.55;72.71
67354;SHT30;54238;52.278;21.056;2022-11-25T14:54:10;4.47;72.93
67354;SHT30;54238;52.278;21.056;2022-11-25T14:56:40;4.45;73.01
67354;SHT30;54238;52.278;21.056;2022-11-25T14:59:09;4.47;73.05
67354;SHT30;54238;52.278;21.056;2022-11-25T15:01:49;4.57;73.05
67354;SHT30;54238;52.278;21.056;2022-11-25T15:04:21;4.68;72.96
67354;SHT30;54238;52.278;21.056;2022-11-25T15:06:54;4.74;72.83
67354;SHT30;54238;52.278;21.056;2022-11-25T15:09:30;4.81;72.98
67354;SHT30;54238;52.278;21.056;2022-11-25T15:12:10;4.81;72.83
67354;SHT30;54238;52.278;21.056;2022-11-25T15:14:46;4.76;72.88
67354;SHT30;54238;52.278;21.056;2022-11-25T15:17:29;4.69;72.97
67354;SHT30;54238;52.278;21.056;2022-11-25T15:20:08;4.62;73.02
67354;SHT30;54238;52.278;21.056;2022-11-25T15:22:47;4.52;73.24
67354;SHT30;54238;52.278;21.056;2022-11-25T15:25:17;4.52;73.31
67354;SHT30;54238;52.278;21.056;2022-11-25T15:27:48;4.63;73.15
67354;SHT30;54238;52.278;21.056;2022-11-25T15:30:25;4.76;72.98
67354;SHT30;54238;52.278;21.056;2022-11-25T15:32:57;4.88;72.85
67354;SHT30;54238;52.278;21.056;2022-11-25T15:35:29;4.95;72.77
67354;SHT30;54238;52.278;21.056;2022-11-25T15:37:56;4.96;72.67
67354;SHT30;54238;52.278;21.056;2022-11-25T15:43:01;4.86;72.74
67354;SHT30;54238;52.278;21.056;2022-11-25T15:45:35;4.75;72.79
67354;SHT30;54238;52.278;21.056;2022-11-25T15:48:19;4.64;72.92
67354;SHT30;54238;52.278;21.056;2022-11-25T15:51:01;4.61;73.11
67354;SHT30;54238;52.278;21.056;2022-11-25T15:53:35;4.64;73.13
67354;SHT30;54238;52.278;21.056;2022-11-25T15:56:04;4.73;73.09
67354;SHT30;54238;52.278;21.056;2022-11-25T15:58:39;4.84;72.88
67354;SHT30;54238;52.278;21.056;2022-11-25T16:03:43;5.01;72.74
67354;SHT30;54238;52.278;21.056;2022-11-25T16:08:54;4.92;72.54
67354;SHT30;54238;52.278;21.056;2022-11-25T16:11:27;4.81;72.67
67354;SHT30;54238;52.278;21.056;2022-11-25T16:14:27;4.70;72.89
67354;SHT30;54238;52.278;21.056;2022-11-25T16:17:08;4.59;73.16
67354;SHT30;54238;52.278;21.056;2022-11-25T16:19:40;4.48;73.33
67354;SHT30;54238;52.278;21.056;2022-11-25T16:22:14;4.45;73.47
67354;SHT30;54238;52.278;21.056;2022-11-25T16:24:46;4.51;73.36
67354;SHT30;54238;52.278;21.056;2022-11-25T16:27:24;4.60;73.35
67354;SHT30;54238;52.278;21.056;2022-11-25T16:32:45;4.80;73.28
67354;SHT30;54238;52.278;21.056;2022-11-25T16:37:48;4.77;73.19
67354;SHT30;54238;52.278;21.056;2022-11-25T16:40:25;4.66;73.18
67354;SHT30;54238;52.278;21.056;2022-11-25T16:42:56;4.51;73.38
67354;SHT30;54238;52.278;21.056;2022-11-25T16:45:25;4.41;73.74
67354;SHT30;54238;52.278;21.056;2022-11-25T16:47:57;4.39;73.80
67354;SHT30;54238;52.278;21.056;2022-11-25T16:50:29;4.45;73.76
67354;SHT30;54238;52.278;21.056;2022-11-25T16:52:59;4.50;73.73
67354;SHT30;54238;52.278;21.056;2022-11-25T16:55:33;4.61;73.62
67354;SHT30;54238;52.278;21.056;2022-11-25T16:58:04;4.59;73.59
67354;SHT30;54238;52.278;21.056;2022-11-25T17:00:47;4.56;73.80
67354;SHT30;54238;52.278;21.056;2022-11-25T17:03:22;4.54;73.88
67354;SHT30;54238;52.278;21.056;2022-11-25T17:05:51;4.49;73.92
67354;SHT30;54238;52.278;21.056;2022-11-25T17:08:24;4.42;73.89
67354;SHT30;54238;52.278;21.056;2022-11-25T17:10:51;4.36;73.97
67354;SHT30;54238;52.278;21.056;2022-11-25T17:13:27;4.42;74.05
67354;SHT30;54238;52.278;21.056;2022-11-25T17:15:59;4.49;73.87
67354;SHT30;54238;52.278;21.056;2022-11-25T17:18:28;4.59;73.95
67354;SHT30;54238;52.278;21.056;2022-11-25T17:20:56;4.66;73.74
67354;SHT30;54238;52.278;21.056;2022-11-25T17:23:30;4.63;73.78
67354;SHT30;54238;52.278;21.056;2022-11-25T17:25:59;4.59;73.90
67354;SHT30;54238;52.278;21.056;2022-11-25T17:28:30;4.53;73.95
67354;SHT30;54238;52.278;21.056;2022-11-25T17:30:57;4.43;74.05
67354;SHT30;54238;52.278;21.056;2022-11-25T17:33:27;4.36;74.26
67354;SHT30;54238;52.278;21.056;2022-11-25T17:35:56;4.37;74.29
67354;SHT30;54238;52.278;21.056;2022-11-25T17:38:28;4.43;74.20
67354;SHT30;54238;52.278;21.056;2022-11-25T17:41:00;4.53;74.07
67354;SHT30;54238;52.278;21.056;2022-11-25T17:43:27;4.64;73.89
67354;SHT30;54238;52.278;21.056;2022-11-25T17:45:57;4.68;73.89
67354;SHT30;54238;52.278;21.056;2022-11-25T17:48:28;4.65;73.87
67354;SHT30;54238;52.278;21.056;2022-11-25T17:50:58;4.55;74.20
67354;SHT30;54238;52.278;21.056;2022-11-25T17:53:28;4.49;74.30
67354;SHT30;54238;52.278;21.056;2022-11-25T17:56:00;4.39;74.38
67354;SHT30;54238;52.278;21.056;2022-11-25T17:58:28;4.29;74.52
67354;SHT30;54238;52.278;21.056;2022-11-25T18:00:55;4.28;74.73
67354;SHT30;54238;52.278;21.056;2022-11-25T18:03:27;4.34;74.75
67354;SHT30;54238;52.278;21.056;2022-11-25T18:05:57;4.40;74.75
67354;SHT30;54238;52.278;21.056;2022-11-25T18:08:23;4.44;74.67
67354;SHT30;54238;52.278;21.056;2022-11-25T18:10:50;4.51;74.79
67354;SHT30;54238;52.278;21.056;2022-11-25T18:13:20;4.57;74.71
67354;SHT30;54238;52.278;21.056;2022-11-25T18:15:52;4.53;74.61
67354;SHT30;54238;52.278;21.056;2022-11-25T18:18:21;4.48;74.88
67354;SHT30;54238;52.278;21.056;2022-11-25T18:20:53;4.39;75.00
67354;SHT30;54238;52.278;21.056;2022-11-25T18:23:21;4.33;75.18
67354;SHT30;54238;52.278;21.056;2022-11-25T18:25:48;4.30;75.29
67354;SHT30;54238;52.278;21.056;2022-11-25T18:28:23;4.36;75.40
67354;SHT30;54238;52.278;21.056;2022-11-25T18:31:01;4.49;75.39
67354;SHT30;54238;52.278;21.056;2022-11-25T18:33:33;4.60;75.16
67354;SHT30;54238;52.278;21.056;2022-11-25T18:36:08;4.62;75.02
67354;SHT30;54238;52.278;21.056;2022-11-25T18:38:38;4.60;75.06
67354;SHT30;54238;52.278;21.056;2022-11-25T18:41:09;4.54;75.10
67354;SHT30;54238;52.278;21.056;2022-11-25T18:43:47;4.46;75.31
67354;SHT30;54238;52.278;21.056;2022-11-25T18:46:18;4.42;75.46
67354;SHT30;54238;52.278;21.056;2022-11-25T18:48:50;4.38;75.33
67354;SHT30;54238;52.278;21.056;2022-11-25T18:51:19;4.41;75.34
67354;SHT30;54238;52.278;21.056;2022-11-25T18:53:49;4.47;75.23
67354;SHT30;54238;52.278;21.056;2022-11-25T18:56:20;4.53;75.12
67354;SHT30;54238;52.278;21.056;2022-11-25T18:58:51;4.53;75.18
67354;SHT30;54238;52.278;21.056;2022-11-25T19:01:18;4.47;75.26
67354;SHT30;54238;52.278;21.056;2022-11-25T19:03:50;4.39;75.51
67354;SHT30;54238;52.278;21.056;2022-11-25T19:06:17;4.34;75.64
67354;SHT30;54238;52.278;21.056;2022-11-25T19:08:50;4.26;75.84
67354;SHT30;54238;52.278;21.056;2022-11-25T19:11:30;4.25;75.94